sensor_id;sensor_type;location;lat;lon;timestamp;P1;durP1;ratioP1;P2;durP2;ratioP2
73776;SDS011;62088;50.240;2.696;2023-02-22T00:01:33;28.55;;;19.60;;
73776;SDS011;62088;50.240;2.696;2023-02-22T00:04:02;26.55;;;17.65;;
73776;SDS011;62088;50.240;2.696;2023-02-22T00:06:30;30.65;;;19.50;;
73776;SDS011;62088;50.240;2.696;2023-02-22T00:08:58;34.80;;;23.08;;
73776;SDS011;62088;50.240;2.696;2023-02-22T00:11:27;35.30;;;22.33;;
73776;SDS011;62088;50.240;2.696;2023-02-22T00:13:57;39.45;;;23.80;;
73776;SDS011;62088;50.240;2.696;2023-02-22T00:16:24;29.00;;;19.38;;
73776;SDS011;62088;50.240;2.696;2023-02-22T00:18:52;31.92;;;21.65;;
73776;SDS011;62088;50.240;2.696;2023-02-22T00:21:19;33.15;;;20.65;;
73776;SDS011;62088;50.240;2.696;2023-02-22T00:23:47;31.30;;;20.95;;
73776;SDS011;62088;50.240;2.696;2023-02-22T00:26:16;32.58;;;20.30;;
73776;SDS011;62088;50.240;2.696;2023-02-22T00:28:47;36.97;;;22.95;;
73776;SDS011;62088;50.240;2.696;2023-02-22T00:31:16;33.17;;;20.83;;
73776;SDS011;62088;50.240;2.696;2023-02-22T00:33:44;28.13;;;19.95;;
73776;SDS011;62088;50.240;2.696;2023-02-22T00:36:12;32.22;;;22.15;;
73776;SDS011;62088;50.240;2.696;2023-02-22T00:38:40;30.48;;;19.27;;
73776;SDS011;62088;50.240;2.696;2023-02-22T00:41:08;35.40;;;21.85;;
73776;SDS011;62088;50.240;2.696;2023-02-22T00:43:35;31.50;;;19.80;;
73776;SDS011;62088;50.240;2.696;2023-02-22T00:46:02;28.88;;;19.85;;
73776;SDS011;62088;50.240;2.696;2023-02-22T00:48:30;30.33;;;20.80;;
73776;SDS011;62088;50.240;2.696;2023-02-22T00:50:57;29.30;;;18.50;;
73776;SDS011;62088;50.240;2.696;2023-02-22T00:53:24;30.42;;;20.17;;
73776;SDS011;62088;50.240;2.696;2023-02-22T00:55:52;31.42;;;20.13;;
73776;SDS011;62088;50.240;2.696;2023-02-22T00:58:20;28.42;;;18.38;;
73776;SDS011;62088;50.240;2.696;2023-02-22T01:00:48;29.48;;;20.05;;
73776;SDS011;62088;50.240;2.696;2023-02-22T01:03:16;26.35;;;17.13;;
73776;SDS011;62088;50.240;2.696;2023-02-22T01:05:45;29.55;;;20.30;;
73776;SDS011;62088;50.240;2.696;2023-02-22T01:08:13;27.05;;;18.55;;
73776;SDS011;62088;50.240;2.696;2023-02-22T01:10:42;30.42;;;18.00;;
73776;SDS011;62088;50.240;2.696;2023-02-22T01:13:10;28.52;;;19.10;;
73776;SDS011;62088;50.240;2.696;2023-02-22T01:15:39;27.23;;;19.08;;
73776;SDS011;62088;50.240;2.696;2023-02-22T01:18:08;26.02;;;17.85;;
73776;SDS011;62088;50.240;2.696;2023-02-22T01:20:37;23.00;;;16.95;;
73776;SDS011;62088;50.240;2.696;2023-02-22T01:23:06;26.15;;;16.88;;
73776;SDS011;62088;50.240;2.696;2023-02-22T01:25:34;31.33;;;19.55;;
73776;SDS011;62088;50.240;2.696;2023-02-22T01:28:02;29.02;;;18.00;;
73776;SDS011;62088;50.240;2.696;2023-02-22T01:30:33;28.00;;;19.02;;
73776;SDS011;62088;50.240;2.696;2023-02-22T01:33:02;25.92;;;18.52;;
73776;SDS011;62088;50.240;2.696;2023-02-22T01:35:32;25.70;;;17.60;;
73776;SDS011;62088;50.240;2.696;2023-02-22T01:38:01;28.90;;;19.08;;
73776;SDS011;62088;50.240;2.696;2023-02-22T01:40:30;25.95;;;19.10;;
73776;SDS011;62088;50.240;2.696;2023-02-22T01:43:00;27.38;;;18.83;;
73776;SDS011;62088;50.240;2.696;2023-02-22T01:53:53;24.85;;;17.55;;
73776;SDS011;62088;50.240;2.696;2023-02-22T01:56:25;28.35;;;19.23;;
73776;SDS011;62088;50.240;2.696;2023-02-22T01:58:56;28.10;;;19.42;;
73776;SDS011;62088;50.240;2.696;2023-02-22T02:01:27;31.40;;;21.00;;
73776;SDS011;62088;50.240;2.696;2023-02-22T02:03:55;27.70;;;19.65;;
73776;SDS011;62088;50.240;2.696;2023-02-22T02:06:25;24.10;;;16.40;;
73776;SDS011;62088;50.240;2.696;2023-02-22T02:09:00;27.38;;;18.50;;
73776;SDS011;62088;50.240;2.696;2023-02-22T02:11:39;24.10;;;17.05;;
73776;SDS011;62088;50.240;2.696;2023-02-22T02:14:08;23.70;;;17.48;;
73776;SDS011;62088;50.240;2.696;2023-02-22T02:16:37;25.77;;;17.02;;
73776;SDS011;62088;50.240;2.696;2023-02-22T02:19:11;22.67;;;15.40;;
73776;SDS011;62088;50.240;2.696;2023-02-22T02:24:57;30.85;;;19.83;;
73776;SDS011;62088;50.240;2.696;2023-02-22T02:27:56;27.05;;;18.42;;
73776;SDS011;62088;50.240;2.696;2023-02-22T02:36:03;29.85;;;19.55;;
73776;SDS011;62088;50.240;2.696;2023-02-22T02:38:56;28.55;;;19.98;;
73776;SDS011;62088;50.240;2.696;2023-02-22T02:41:38;26.23;;;18.63;;
73776;SDS011;62088;50.240;2.696;2023-02-22T02:46:46;29.73;;;20.95;;
73776;SDS011;62088;50.240;2.696;2023-02-22T02:49:20;29.55;;;19.60;;
73776;SDS011;62088;50.240;2.696;2023-02-22T02:51:51;30.75;;;20.88;;
73776;SDS011;62088;50.240;2.696;2023-02-22T02:54:20;34.25;;;21.25;;
73776;SDS011;62088;50.240;2.696;2023-02-22T02:56:50;31.00;;;20.35;;
73776;SDS011;62088;50.240;2.696;2023-02-22T03:13:34;29.13;;;19.23;;
73776;SDS011;62088;50.240;2.696;2023-02-22T03:16:48;27.23;;;18.13;;
73776;SDS011;62088;50.240;2.696;2023-02-22T03:19:37;28.30;;;18.30;;
73776;SDS011;62088;50.240;2.696;2023-02-22T03:24:55;25.23;;;17.60;;
73776;SDS011;62088;50.240;2.696;2023-02-22T03:28:09;31.57;;;21.20;;
73776;SDS011;62088;50.240;2.696;2023-02-22T03:30:38;33.38;;;21.77;;
73776;SDS011;62088;50.240;2.696;2023-02-22T03:33:18;38.50;;;24.60;;
73776;SDS011;62088;50.240;2.696;2023-02-22T03:36:35;26.17;;;18.45;;
73776;SDS011;62088;50.240;2.696;2023-02-22T03:38:59;29.92;;;21.27;;
73776;SDS011;62088;50.240;2.696;2023-02-22T03:41:30;37.50;;;24.55;;
73776;SDS011;62088;50.240;2.696;2023-02-22T03:44:01;27.00;;;19.38;;
73776;SDS011;62088;50.240;2.696;2023-02-22T03:46:32;34.10;;;24.23;;
73776;SDS011;62088;50.240;2.696;2023-02-22T03:51:37;32.45;;;22.85;;
73776;SDS011;62088;50.240;2.696;2023-02-22T03:54:05;37.47;;;24.77;;
73776;SDS011;62088;50.240;2.696;2023-02-22T03:56:38;30.65;;;21.92;;
73776;SDS011;62088;50.240;2.696;2023-02-22T03:59:20;34.72;;;24.02;;
73776;SDS011;62088;50.240;2.696;2023-02-22T04:01:53;30.92;;;22.20;;
73776;SDS011;62088;50.240;2.696;2023-02-22T04:04:21;31.55;;;21.83;;
73776;SDS011;62088;50.240;2.696;2023-02-22T04:06:50;31.50;;;20.77;;
73776;SDS011;62088;50.240;2.696;2023-02-22T04:09:17;34.40;;;23.33;;
73776;SDS011;62088;50.240;2.696;2023-02-22T04:11:45;35.13;;;23.05;;
73776;SDS011;62088;50.240;2.696;2023-02-22T04:14:13;31.77;;;22.27;;
73776;SDS011;62088;50.240;2.696;2023-02-22T04:16:41;30.67;;;21.95;;
73776;SDS011;62088;50.240;2.696;2023-02-22T04:19:08;30.30;;;20.98;;
73776;SDS011;62088;50.240;2.696;2023-02-22T04:21:37;36.08;;;24.27;;
73776;SDS011;62088;50.240;2.696;2023-02-22T04:24:08;32.65;;;22.27;;
73776;SDS011;62088;50.240;2.696;2023-02-22T04:26:35;37.70;;;23.92;;
73776;SDS011;62088;50.240;2.696;2023-02-22T04:29:04;42.00;;;28.95;;
73776;SDS011;62088;50.240;2.696;2023-02-22T04:31:36;43.50;;;26.60;;
73776;SDS011;62088;50.240;2.696;2023-02-22T04:34:04;44.63;;;29.30;;
73776;SDS011;62088;50.240;2.696;2023-02-22T04:36:34;36.75;;;24.15;;
73776;SDS011;62088;50.240;2.696;2023-02-22T04:39:02;42.10;;;29.45;;
73776;SDS011;62088;50.240;2.696;2023-02-22T04:41:30;45.05;;;27.75;;
73776;SDS011;62088;50.240;2.696;2023-02-22T04:43:59;38.25;;;26.65;;
73776;SDS011;62088;50.240;2.696;2023-02-22T04:46:27;37.53;;;26.10;;
73776;SDS011;62088;50.240;2.696;2023-02-22T04:48:54;35.20;;;25.15;;
73776;SDS011;62088;50.240;2.696;2023-02-22T04:51:25;39.15;;;24.95;;
73776;SDS011;62088;50.240;2.696;2023-02-22T04:53:57;37.28;;;24.45;;
73776;SDS011;62088;50.240;2.696;2023-02-22T04:56:24;40.03;;;26.05;;
73776;SDS011;62088;50.240;2.696;2023-02-22T04:58:51;45.50;;;38.60;;
73776;SDS011;62088;50.240;2.696;2023-02-22T05:01:18;45.40;;;29.58;;
73776;SDS011;62088;50.240;2.696;2023-02-22T05:03:46;48.55;;;33.53;;
73776;SDS011;62088;50.240;2.696;2023-02-22T05:06:13;48.92;;;33.70;;
73776;SDS011;62088;50.240;2.696;2023-02-22T05:08:41;43.72;;;28.55;;
73776;SDS011;62088;50.240;2.696;2023-02-22T05:11:08;46.50;;;31.70;;
73776;SDS011;62088;50.240;2.696;2023-02-22T05:13:35;44.80;;;32.25;;
73776;SDS011;62088;50.240;2.696;2023-02-22T05:16:02;48.08;;;30.25;;
73776;SDS011;62088;50.240;2.696;2023-02-22T05:18:29;51.05;;;32.33;;
73776;SDS011;62088;50.240;2.696;2023-02-22T05:20:56;56.83;;;35.95;;
73776;SDS011;62088;50.240;2.696;2023-02-22T05:23:23;50.47;;;34.28;;
73776;SDS011;62088;50.240;2.696;2023-02-22T05:25:50;52.40;;;33.85;;
73776;SDS011;62088;50.240;2.696;2023-02-22T05:28:17;52.53;;;32.92;;
73776;SDS011;62088;50.240;2.696;2023-02-22T05:30:44;54.08;;;33.95;;
73776;SDS011;62088;50.240;2.696;2023-02-22T05:33:11;53.38;;;33.83;;
73776;SDS011;62088;50.240;2.696;2023-02-22T05:35:38;53.47;;;34.05;;
73776;SDS011;62088;50.240;2.696;2023-02-22T05:38:06;55.35;;;37.60;;
73776;SDS011;62088;50.240;2.696;2023-02-22T05:40:33;61.38;;;36.67;;
73776;SDS011;62088;50.240;2.696;2023-02-22T05:43:00;47.72;;;32.47;;
73776;SDS011;62088;50.240;2.696;2023-02-22T05:45:28;55.08;;;33.60;;
73776;SDS011;62088;50.240;2.696;2023-02-22T05:47:55;67.15;;;44.47;;
73776;SDS011;62088;50.240;2.696;2023-02-22T05:50:22;51.00;;;33.83;;
73776;SDS011;62088;50.240;2.696;2023-02-22T05:52:50;48.75;;;33.25;;
73776;SDS011;62088;50.240;2.696;2023-02-22T05:55:19;47.80;;;31.58;;
73776;SDS011;62088;50.240;2.696;2023-02-22T05:57:48;48.42;;;32.15;;
73776;SDS011;62088;50.240;2.696;2023-02-22T06:00:20;54.60;;;33.65;;
73776;SDS011;62088;50.240;2.696;2023-02-22T06:05:26;52.95;;;33.25;;
73776;SDS011;62088;50.240;2.696;2023-02-22T06:07:54;44.85;;;31.77;;
73776;SDS011;62088;50.240;2.696;2023-02-22T06:10:22;44.80;;;31.58;;
73776;SDS011;62088;50.240;2.696;2023-02-22T06:12:50;47.65;;;32.78;;
73776;SDS011;62088;50.240;2.696;2023-02-22T06:15:18;49.78;;;33.65;;
73776;SDS011;62088;50.240;2.696;2023-02-22T06:17:46;46.88;;;32.55;;
73776;SDS011;62088;50.240;2.696;2023-02-22T06:20:15;48.17;;;33.65;;
73776;SDS011;62088;50.240;2.696;2023-02-22T06:22:48;53.53;;;34.75;;
73776;SDS011;62088;50.240;2.696;2023-02-22T06:25:17;50.30;;;33.33;;
73776;SDS011;62088;50.240;2.696;2023-02-22T06:27:47;50.20;;;32.55;;
73776;SDS011;62088;50.240;2.696;2023-02-22T06:30:15;50.65;;;32.28;;
73776;SDS011;62088;50.240;2.696;2023-02-22T06:32:43;44.95;;;32.88;;
73776;SDS011;62088;50.240;2.696;2023-02-22T06:35:10;48.58;;;35.05;;
73776;SDS011;62088;50.240;2.696;2023-02-22T06:37:38;49.88;;;34.28;;
73776;SDS011;62088;50.240;2.696;2023-02-22T06:40:05;52.20;;;32.67;;
73776;SDS011;62088;50.240;2.696;2023-02-22T06:42:32;42.58;;;31.85;;
73776;SDS011;62088;50.240;2.696;2023-02-22T06:44:59;48.35;;;34.42;;
73776;SDS011;62088;50.240;2.696;2023-02-22T06:47:26;51.10;;;33.50;;
73776;SDS011;62088;50.240;2.696;2023-02-22T06:49:54;46.90;;;32.58;;
73776;SDS011;62088;50.240;2.696;2023-02-22T06:52:22;49.80;;;32.97;;
73776;SDS011;62088;50.240;2.696;2023-02-22T06:54:50;51.30;;;33.22;;
73776;SDS011;62088;50.240;2.696;2023-02-22T06:57:17;49.50;;;34.75;;
73776;SDS011;62088;50.240;2.696;2023-02-22T06:59:44;49.80;;;35.10;;
73776;SDS011;62088;50.240;2.696;2023-02-22T07:02:11;52.33;;;34.67;;
73776;SDS011;62088;50.240;2.696;2023-02-22T07:04:39;51.63;;;33.60;;
73776;SDS011;62088;50.240;2.696;2023-02-22T07:07:09;49.20;;;34.53;;
73776;SDS011;62088;50.240;2.696;2023-02-22T07:09:36;48.33;;;34.38;;
73776;SDS011;62088;50.240;2.696;2023-02-22T07:12:03;58.10;;;35.45;;
73776;SDS011;62088;50.240;2.696;2023-02-22T07:14:30;47.45;;;33.28;;
73776;SDS011;62088;50.240;2.696;2023-02-22T07:16:57;53.22;;;36.42;;
73776;SDS011;62088;50.240;2.696;2023-02-22T07:19:24;62.05;;;48.85;;
73776;SDS011;62088;50.240;2.696;2023-02-22T07:21:51;55.13;;;36.10;;
73776;SDS011;62088;50.240;2.696;2023-02-22T07:24:25;64.57;;;47.03;;
73776;SDS011;62088;50.240;2.696;2023-02-22T07:26:55;62.63;;;35.90;;
73776;SDS011;62088;50.240;2.696;2023-02-22T07:29:22;54.25;;;35.78;;
73776;SDS011;62088;50.240;2.696;2023-02-22T07:31:50;52.63;;;37.20;;
73776;SDS011;62088;50.240;2.696;2023-02-22T07:34:17;56.28;;;36.72;;
73776;SDS011;62088;50.240;2.696;2023-02-22T07:36:44;53.58;;;35.25;;
73776;SDS011;62088;50.240;2.696;2023-02-22T07:39:11;59.20;;;39.78;;
73776;SDS011;62088;50.240;2.696;2023-02-22T07:41:38;52.75;;;37.13;;
73776;SDS011;62088;50.240;2.696;2023-02-22T07:44:19;56.03;;;34.95;;
73776;SDS011;62088;50.240;2.696;2023-02-22T07:46:46;65.47;;;40.45;;
73776;SDS011;62088;50.240;2.696;2023-02-22T07:49:14;56.20;;;42.03;;
73776;SDS011;62088;50.240;2.696;2023-02-22T07:51:41;54.17;;;37.25;;
73776;SDS011;62088;50.240;2.696;2023-02-22T07:54:08;61.47;;;39.30;;
73776;SDS011;62088;50.240;2.696;2023-02-22T07:56:35;65.45;;;38.78;;
73776;SDS011;62088;50.240;2.696;2023-02-22T07:59:02;61.47;;;38.25;;
73776;SDS011;62088;50.240;2.696;2023-02-22T08:01:29;59.03;;;40.65;;
73776;SDS011;62088;50.240;2.696;2023-02-22T08:03:57;54.60;;;38.70;;
73776;SDS011;62088;50.240;2.696;2023-02-22T08:06:24;74.68;;;55.20;;
73776;SDS011;62088;50.240;2.696;2023-02-22T08:08:51;64.15;;;39.83;;
73776;SDS011;62088;50.240;2.696;2023-02-22T08:11:18;69.60;;;45.15;;
73776;SDS011;62088;50.240;2.696;2023-02-22T08:13:45;57.90;;;37.38;;
73776;SDS011;62088;50.240;2.696;2023-02-22T08:16:12;57.90;;;42.80;;
73776;SDS011;62088;50.240;2.696;2023-02-22T08:18:39;53.72;;;38.80;;
73776;SDS011;62088;50.240;2.696;2023-02-22T08:21:06;57.30;;;39.42;;
73776;SDS011;62088;50.240;2.696;2023-02-22T08:23:33;56.30;;;36.50;;
73776;SDS011;62088;50.240;2.696;2023-02-22T08:26:04;62.08;;;40.50;;
73776;SDS011;62088;50.240;2.696;2023-02-22T08:28:32;59.00;;;39.70;;
73776;SDS011;62088;50.240;2.696;2023-02-22T08:30:59;76.57;;;57.08;;
73776;SDS011;62088;50.240;2.696;2023-02-22T08:33:26;62.72;;;40.42;;
73776;SDS011;62088;50.240;2.696;2023-02-22T08:35:53;66.30;;;42.47;;
73776;SDS011;62088;50.240;2.696;2023-02-22T08:38:25;58.97;;;41.85;;
73776;SDS011;62088;50.240;2.696;2023-02-22T08:40:54;66.07;;;41.70;;
73776;SDS011;62088;50.240;2.696;2023-02-22T08:43:22;65.75;;;39.80;;
73776;SDS011;62088;50.240;2.696;2023-02-22T08:45:49;62.47;;;39.78;;
73776;SDS011;62088;50.240;2.696;2023-02-22T08:48:17;82.00;;;58.33;;
73776;SDS011;62088;50.240;2.696;2023-02-22T08:59:46;78.40;;;44.58;;
73776;SDS011;62088;50.240;2.696;2023-02-22T09:02:16;84.47;;;60.67;;
73776;SDS011;62088;50.240;2.696;2023-02-22T09:04:46;80.28;;;47.38;;
73776;SDS011;62088;50.240;2.696;2023-02-22T09:07:15;80.90;;;51.67;;
73776;SDS011;62088;50.240;2.696;2023-02-22T09:09:42;74.55;;;45.28;;
73776;SDS011;62088;50.240;2.696;2023-02-22T09:12:10;83.82;;;51.15;;
73776;SDS011;62088;50.240;2.696;2023-02-22T09:14:37;86.68;;;50.67;;
73776;SDS011;62088;50.240;2.696;2023-02-22T09:17:04;99.70;;;55.85;;
73776;SDS011;62088;50.240;2.696;2023-02-22T09:19:31;113.15;;;75.80;;
73776;SDS011;62088;50.240;2.696;2023-02-22T09:21:58;104.63;;;59.50;;
73776;SDS011;62088;50.240;2.696;2023-02-22T09:24:26;112.75;;;75.43;;
73776;SDS011;62088;50.240;2.696;2023-02-22T09:26:53;102.70;;;55.50;;
73776;SDS011;62088;50.240;2.696;2023-02-22T09:29:21;123.13;;;76.97;;
73776;SDS011;62088;50.240;2.696;2023-02-22T09:31:49;127.20;;;77.85;;
73776;SDS011;62088;50.240;2.696;2023-02-22T09:34:19;124.53;;;78.18;;
73776;SDS011;62088;50.240;2.696;2023-02-22T09:36:48;105.50;;;59.38;;
73776;SDS011;62088;50.240;2.696;2023-02-22T09:39:16;105.20;;;53.88;;
73776;SDS011;62088;50.240;2.696;2023-02-22T09:44:47;113.22;;;55.65;;
73776;SDS011;62088;50.240;2.696;2023-02-22T09:47:20;96.75;;;53.42;;
73776;SDS011;62088;50.240;2.696;2023-02-22T09:50:11;130.82;;;77.65;;
73776;SDS011;62088;50.240;2.696;2023-02-22T09:55:24;108.38;;;54.22;;
73776;SDS011;62088;50.240;2.696;2023-02-22T09:57:56;145.70;;;78.72;;
73776;SDS011;62088;50.240;2.696;2023-02-22T10:00:31;114.03;;;59.78;;
73776;SDS011;62088;50.240;2.696;2023-02-22T10:05:54;142.55;;;79.82;;
73776;SDS011;62088;50.240;2.696;2023-02-22T10:08:23;114.30;;;56.10;;
73776;SDS011;62088;50.240;2.696;2023-02-22T10:16:42;112.35;;;52.78;;
73776;SDS011;62088;50.240;2.696;2023-02-22T10:19:29;113.60;;;53.55;;
73776;SDS011;62088;50.240;2.696;2023-02-22T10:30:20;171.80;;;85.47;;
73776;SDS011;62088;50.240;2.696;2023-02-22T10:32:56;146.05;;;60.08;;
73776;SDS011;62088;50.240;2.696;2023-02-22T10:35:38;230.18;;;117.50;;
73776;SDS011;62088;50.240;2.696;2023-02-22T10:38:19;191.23;;;101.80;;
73776;SDS011;62088;50.240;2.696;2023-02-22T10:41:02;134.77;;;60.70;;
73776;SDS011;62088;50.240;2.696;2023-02-22T10:43:45;137.52;;;59.97;;
73776;SDS011;62088;50.240;2.696;2023-02-22T10:46:14;169.13;;;85.15;;
73776;SDS011;62088;50.240;2.696;2023-02-22T10:48:46;147.00;;;59.40;;
73776;SDS011;62088;50.240;2.696;2023-02-22T10:51:16;163.32;;;81.95;;
73776;SDS011;62088;50.240;2.696;2023-02-22T10:53:43;176.07;;;83.68;;
73776;SDS011;62088;50.240;2.696;2023-02-22T10:56:19;137.57;;;57.00;;
73776;SDS011;62088;50.240;2.696;2023-02-22T10:58:51;165.05;;;81.45;;
73776;SDS011;62088;50.240;2.696;2023-02-22T11:04:02;197.00;;;98.53;;
73776;SDS011;62088;50.240;2.696;2023-02-22T11:06:42;173.70;;;82.55;;
73776;SDS011;62088;50.240;2.696;2023-02-22T11:11:46;166.77;;;79.75;;
73776;SDS011;62088;50.240;2.696;2023-02-22T11:14:24;168.90;;;75.55;;
73776;SDS011;62088;50.240;2.696;2023-02-22T11:16:53;124.25;;;53.03;;
73776;SDS011;62088;50.240;2.696;2023-02-22T11:19:29;150.15;;;72.63;;
73776;SDS011;62088;50.240;2.696;2023-02-22T11:21:58;143.65;;;71.15;;
73776;SDS011;62088;50.240;2.696;2023-02-22T11:24:43;117.75;;;48.08;;
73776;SDS011;62088;50.240;2.696;2023-02-22T11:27:30;150.23;;;70.97;;
73776;SDS011;62088;50.240;2.696;2023-02-22T11:38:17;131.20;;;68.53;;
73776;SDS011;62088;50.240;2.696;2023-02-22T11:43:29;133.35;;;65.07;;
73776;SDS011;62088;50.240;2.696;2023-02-22T11:45:58;127.82;;;62.13;;
73776;SDS011;62088;50.240;2.696;2023-02-22T11:48:33;121.85;;;61.17;;
73776;SDS011;62088;50.240;2.696;2023-02-22T11:56:53;95.45;;;43.05;;
73776;SDS011;62088;50.240;2.696;2023-02-22T12:13:35;89.57;;;50.60;;
73776;SDS011;62088;50.240;2.696;2023-02-22T12:18:53;96.53;;;52.92;;
73776;SDS011;62088;50.240;2.696;2023-02-22T12:21:51;90.95;;;49.83;;
73776;SDS011;62088;50.240;2.696;2023-02-22T12:27:37;95.72;;;51.85;;
73776;SDS011;62088;50.240;2.696;2023-02-22T12:32:52;80.40;;;45.13;;
73776;SDS011;62088;50.240;2.696;2023-02-22T12:35:33;66.57;;;34.05;;
73776;SDS011;62088;50.240;2.696;2023-02-22T12:38:32;79.20;;;44.42;;
73776;SDS011;62088;50.240;2.696;2023-02-22T12:43:50;76.05;;;45.00;;
73776;SDS011;62088;50.240;2.696;2023-02-22T12:46:39;83.55;;;46.17;;
73776;SDS011;62088;50.240;2.696;2023-02-22T12:54:54;76.85;;;46.72;;
73776;SDS011;62088;50.240;2.696;2023-02-22T12:57:47;65.32;;;33.80;;
73776;SDS011;62088;50.240;2.696;2023-02-22T13:01:02;71.03;;;42.47;;
73776;SDS011;62088;50.240;2.696;2023-02-22T13:03:38;57.83;;;32.20;;
73776;SDS011;62088;50.240;2.696;2023-02-22T13:11:41;54.80;;;28.98;;
73776;SDS011;62088;50.240;2.696;2023-02-22T13:17:41;59.00;;;36.05;;
73776;SDS011;62088;50.240;2.696;2023-02-22T13:20:36;62.35;;;37.75;;
73776;SDS011;62088;50.240;2.696;2023-02-22T13:23:09;64.28;;;38.20;;
73776;SDS011;62088;50.240;2.696;2023-02-22T13:26:23;60.03;;;36.83;;
73776;SDS011;62088;50.240;2.696;2023-02-22T13:29:03;66.03;;;37.63;;
73776;SDS011;62088;50.240;2.696;2023-02-22T13:36:54;72.72;;;39.22;;
73776;SDS011;62088;50.240;2.696;2023-02-22T13:39:59;64.45;;;36.50;;
73776;SDS011;62088;50.240;2.696;2023-02-22T13:54:07;57.00;;;28.48;;
73776;SDS011;62088;50.240;2.696;2023-02-22T13:56:35;58.40;;;34.58;;
73776;SDS011;62088;50.240;2.696;2023-02-22T14:01:49;62.15;;;35.63;;
73776;SDS011;62088;50.240;2.696;2023-02-22T14:07:03;53.03;;;34.80;;
73776;SDS011;62088;50.240;2.696;2023-02-22T14:09:55;60.42;;;28.27;;
73776;SDS011;62088;50.240;2.696;2023-02-22T14:20:24;42.60;;;24.02;;
73776;SDS011;62088;50.240;2.696;2023-02-22T14:25:54;62.28;;;36.40;;
73776;SDS011;62088;50.240;2.696;2023-02-22T14:34:03;55.83;;;35.15;;
73776;SDS011;62088;50.240;2.696;2023-02-22T14:39:07;61.35;;;35.95;;
73776;SDS011;62088;50.240;2.696;2023-02-22T14:41:40;54.55;;;34.80;;
73776;SDS011;62088;50.240;2.696;2023-02-22T14:44:12;60.03;;;36.33;;
73776;SDS011;62088;50.240;2.696;2023-02-22T14:46:41;56.00;;;34.30;;
73776;SDS011;62088;50.240;2.696;2023-02-22T14:49:16;51.70;;;33.92;;
73776;SDS011;62088;50.240;2.696;2023-02-22T14:51:50;47.80;;;33.33;;
73776;SDS011;62088;50.240;2.696;2023-02-22T14:54:36;48.58;;;33.63;;
73776;SDS011;62088;50.240;2.696;2023-02-22T14:57:20;50.53;;;33.33;;
73776;SDS011;62088;50.240;2.696;2023-02-22T15:02:49;45.17;;;26.20;;
73776;SDS011;62088;50.240;2.696;2023-02-22T15:05:22;51.22;;;33.45;;
73776;SDS011;62088;50.240;2.696;2023-02-22T15:08:03;54.22;;;36.25;;
73776;SDS011;62088;50.240;2.696;2023-02-22T15:10:39;47.28;;;32.97;;
73776;SDS011;62088;50.240;2.696;2023-02-22T15:13:18;91.78;;;60.17;;
73776;SDS011;62088;50.240;2.696;2023-02-22T15:15:56;49.95;;;35.67;;
73776;SDS011;62088;50.240;2.696;2023-02-22T15:18:29;47.85;;;31.70;;
73776;SDS011;62088;50.240;2.696;2023-02-22T15:21:11;40.55;;;25.30;;
73776;SDS011;62088;50.240;2.696;2023-02-22T15:23:44;41.50;;;29.13;;
73776;SDS011;62088;50.240;2.696;2023-02-22T15:26:20;40.55;;;28.95;;
73776;SDS011;62088;50.240;2.696;2023-02-22T15:28:55;36.35;;;21.55;;
73776;SDS011;62088;50.240;2.696;2023-02-22T15:31:31;41.72;;;28.90;;
73776;SDS011;62088;50.240;2.696;2023-02-22T15:36:50;42.45;;;28.50;;
73776;SDS011;62088;50.240;2.696;2023-02-22T15:39:26;40.78;;;30.10;;
73776;SDS011;62088;50.240;2.696;2023-02-22T15:42:03;38.08;;;23.02;;
73776;SDS011;62088;50.240;2.696;2023-02-22T15:44:38;37.00;;;27.50;;
73776;SDS011;62088;50.240;2.696;2023-02-22T15:47:10;38.50;;;21.00;;
73776;SDS011;62088;50.240;2.696;2023-02-22T15:49:42;43.30;;;27.73;;
73776;SDS011;62088;50.240;2.696;2023-02-22T15:52:27;40.50;;;30.63;;
73776;SDS011;62088;50.240;2.696;2023-02-22T15:54:54;36.28;;;23.35;;
73776;SDS011;62088;50.240;2.696;2023-02-22T15:57:22;40.45;;;28.45;;
73776;SDS011;62088;50.240;2.696;2023-02-22T15:59:51;41.25;;;28.02;;
73776;SDS011;62088;50.240;2.696;2023-02-22T16:02:32;36.55;;;26.30;;
73776;SDS011;62088;50.240;2.696;2023-02-22T16:05:04;41.08;;;28.23;;
73776;SDS011;62088;50.240;2.696;2023-02-22T16:07:35;40.55;;;28.75;;
73776;SDS011;62088;50.240;2.696;2023-02-22T16:10:24;40.67;;;30.05;;
73776;SDS011;62088;50.240;2.696;2023-02-22T16:13:18;40.23;;;27.03;;
73776;SDS011;62088;50.240;2.696;2023-02-22T16:15:58;34.78;;;25.00;;
73776;SDS011;62088;50.240;2.696;2023-02-22T16:18:50;32.53;;;19.42;;
73776;SDS011;62088;50.240;2.696;2023-02-22T16:21:19;41.42;;;29.60;;
73776;SDS011;62088;50.240;2.696;2023-02-22T16:23:49;38.75;;;28.80;;
73776;SDS011;62088;50.240;2.696;2023-02-22T16:28:55;40.35;;;27.70;;
73776;SDS011;62088;50.240;2.696;2023-02-22T16:31:25;39.05;;;26.63;;
73776;SDS011;62088;50.240;2.696;2023-02-22T16:33:54;41.35;;;30.48;;
73776;SDS011;62088;50.240;2.696;2023-02-22T16:36:22;40.20;;;29.98;;
73776;SDS011;62088;50.240;2.696;2023-02-22T16:39:16;39.10;;;27.50;;
73776;SDS011;62088;50.240;2.696;2023-02-22T16:41:49;39.33;;;28.05;;
73776;SDS011;62088;50.240;2.696;2023-02-22T16:44:17;38.42;;;27.33;;
73776;SDS011;62088;50.240;2.696;2023-02-22T16:46:44;40.80;;;28.20;;
73776;SDS011;62088;50.240;2.696;2023-02-22T16:49:11;44.20;;;30.92;;
73776;SDS011;62088;50.240;2.696;2023-02-22T16:54:13;45.27;;;29.43;;
73776;SDS011;62088;50.240;2.696;2023-02-22T16:56:46;38.08;;;28.05;;
73776;SDS011;62088;50.240;2.696;2023-02-22T16:59:13;36.22;;;27.50;;
73776;SDS011;62088;50.240;2.696;2023-02-22T17:01:41;36.90;;;27.38;;
73776;SDS011;62088;50.240;2.696;2023-02-22T17:04:16;41.28;;;28.83;;
73776;SDS011;62088;50.240;2.696;2023-02-22T17:06:46;31.70;;;20.30;;
73776;SDS011;62088;50.240;2.696;2023-02-22T17:09:13;44.25;;;28.42;;
73776;SDS011;62088;50.240;2.696;2023-02-22T17:11:41;41.53;;;27.13;;
73776;SDS011;62088;50.240;2.696;2023-02-22T17:14:09;37.78;;;26.63;;
73776;SDS011;62088;50.240;2.696;2023-02-22T17:16:41;39.47;;;28.80;;
73776;SDS011;62088;50.240;2.696;2023-02-22T17:19:11;40.83;;;30.38;;
73776;SDS011;62088;50.240;2.696;2023-02-22T17:21:44;45.90;;;30.70;;
73776;SDS011;62088;50.240;2.696;2023-02-22T17:24:13;37.67;;;27.00;;
73776;SDS011;62088;50.240;2.696;2023-02-22T17:26:48;38.28;;;26.17;;
73776;SDS011;62088;50.240;2.696;2023-02-22T17:29:15;35.75;;;25.35;;
73776;SDS011;62088;50.240;2.696;2023-02-22T17:31:43;38.05;;;26.20;;
73776;SDS011;62088;50.240;2.696;2023-02-22T17:34:10;42.13;;;27.75;;
73776;SDS011;62088;50.240;2.696;2023-02-22T17:36:37;41.17;;;26.95;;
73776;SDS011;62088;50.240;2.696;2023-02-22T17:39:04;43.10;;;29.23;;
73776;SDS011;62088;50.240;2.696;2023-02-22T17:41:32;45.58;;;29.70;;
73776;SDS011;62088;50.240;2.696;2023-02-22T17:43:59;43.58;;;29.13;;
73776;SDS011;62088;50.240;2.696;2023-02-22T17:46:26;43.90;;;28.70;;
73776;SDS011;62088;50.240;2.696;2023-02-22T17:48:53;46.08;;;28.05;;
73776;SDS011;62088;50.240;2.696;2023-02-22T17:51:21;40.40;;;19.80;;
73776;SDS011;62088;50.240;2.696;2023-02-22T17:53:49;36.60;;;20.40;;
73776;SDS011;62088;50.240;2.696;2023-02-22T17:56:17;49.70;;;27.08;;